Time;durP1;ratioP1;P1;durP2;ratioP2;P2;SDS_P1;SDS_P2;PMS_P1;PMS_P2;Temp;Humidity;BMP_temperature;BMP_pressure;BME280_temperature;BME280_humidity;BME280_pressure;Samples;Min_cycle;Max_cycle;Signal;HPM_P1;HPM_P2
2023/06/11 00:01:44;;;;;;;8.70;6.90;;;;;;;18.23;47.96;100704.48;112018;1248;24367;-83
2023/06/11 00:04:45;;;;;;;10.60;6.80;;;;;;;18.17;48.11;100707.53;111658;1252;22178;-85
2023/06/11 00:07:21;;;;;;;10.30;7.00;;;;;;;18.14;48.34;100707.20;111925;1250;22714;-83
2023/06/11 00:09:54;;;;;;;10.40;8.50;;;;;;;18.12;48.61;100701.34;111885;1250;21953;-85
2023/06/11 00:12:30;;;;;;;11.90;8.40;;;;;;;18.12;48.68;100706.27;111903;1250;22648;-84
2023/06/11 00:15:05;;;;;;;13.90;8.60;;;;;;;18.09;48.84;100707.52;111936;1250;21956;-86
2023/06/11 00:17:43;;;;;;;11.90;8.10;;;;;;;18.04;48.91;100706.09;112162;1244;23407;-84
2023/06/11 00:20:14;;;;;;;17.10;8.60;;;;;;;17.99;49.08;100704.27;112208;1245;22984;-83
2023/06/11 00:22:56;;;;;;;10.40;7.20;;;;;;;17.94;49.36;100707.21;112547;1242;22049;-84
2023/06/11 00:25:32;;;;;;;9.50;7.80;;;;;;;17.91;49.41;100712.68;112905;1242;21985;-85
2023/06/11 00:28:09;;;;;;;12.00;8.80;;;;;;;17.87;49.43;100717.72;112975;1242;21950;-85
2023/06/11 00:30:55;;;;;;;13.20;7.70;;;;;;;17.81;49.84;100717.34;112058;1248;23769;-86
2023/06/11 00:33:31;;;;;;;11.80;7.60;;;;;;;17.76;49.86;100716.08;112254;1241;23794;-85
2023/06/11 00:36:11;;;;;;;11.90;8.20;;;;;;;17.76;49.87;100722.23;112236;1247;23786;-83
2023/06/11 00:42:33;;;;;;;13.60;8.00;;;;;;;17.61;50.38;100726.14;112520;1243;21953;-85
2023/06/11 00:45:18;;;;;;;13.00;8.90;;;;;;;17.60;50.47;100725.52;112748;1243;21996;-84
2023/06/11 00:47:49;;;;;;;13.10;8.10;;;;;;;17.57;50.66;100729.73;112743;1244;22223;-85
2023/06/11 00:50:28;;;;;;;9.10;7.80;;;;;;;17.54;50.69;100732.55;113245;1238;21949;-85
2023/06/11 00:53:22;;;;;;;;;;;;;;;;;;;;;
2023/06/11 00:56:11;;;;;;;11.90;7.60;;;;;;;17.45;51.38;100734.02;113093;1241;21978;-87
2023/06/11 00:58:44;;;;;;;9.80;8.00;;;;;;;17.44;51.44;100738.29;112510;1241;21986;-84
2023/06/11 01:01:59;;;;;;;10.00;6.40;;;;;;;17.44;51.63;100741.98;112782;1241;22039;-83
2023/06/11 01:04:39;;;;;;;12.40;7.90;;;;;;;17.38;51.91;100739.88;112821;1241;22012;-85
2023/06/11 01:07:37;;;;;;;12.90;7.30;;;;;;;17.37;52.03;100748.02;112765;1241;22042;-82
2023/06/11 01:10:31;;;;;;;15.80;9.20;;;;;;;17.31;52.23;100748.86;113058;1238;21957;-84
2023/06/11 01:13:05;;;;;;;10.60;7.10;;;;;;;17.28;52.32;100750.27;113310;1238;22016;-84
2023/06/11 01:15:38;;;;;;;14.30;7.90;;;;;;;17.27;52.68;100748.61;113366;1238;22967;-83
2023/06/11 01:18:24;;;;;;;11.50;9.10;;;;;;;17.26;52.78;100747.06;112592;1243;21961;-83
2023/06/11 01:21:23;;;;;;;13.50;7.90;;;;;;;17.22;53.09;100748.75;111625;1252;24910;-84
2023/06/11 01:24:27;;;;;;;11.60;8.30;;;;;;;17.20;53.40;100747.26;111510;1252;22452;-83
2023/06/11 01:27:44;;;;;;;13.20;8.50;;;;;;;17.14;53.44;100752.33;111714;1252;21960;-84
2023/06/11 01:30:20;;;;;;;11.90;7.80;;;;;;;17.13;53.57;100753.64;111880;1252;22028;-85
2023/06/11 01:32:58;;;;;;;17.00;9.20;;;;;;;17.12;53.74;100752.29;111707;1251;21956;-84
2023/06/11 01:35:39;;;;;;;17.60;8.30;;;;;;;17.08;54.14;100759.00;112181;1244;22464;-85
2023/06/11 01:38:13;;;;;;;10.10;8.80;;;;;;;17.06;54.12;100764.27;112331;1248;21988;-83
2023/06/11 01:40:57;;;;;;;9.30;8.20;;;;;;;17.02;54.33;100762.75;112309;1248;21941;-85
2023/06/11 01:43:30;;;;;;;10.70;8.40;;;;;;;16.99;54.49;100764.33;112095;1248;22042;-86
2023/06/11 01:46:06;;;;;;;15.10;9.80;;;;;;;16.97;54.87;100765.67;111814;1250;21951;-86
2023/06/11 01:48:51;;;;;;;11.70;8.80;;;;;;;16.94;54.92;100766.02;111872;1250;23734;-85
2023/06/11 01:51:24;;;;;;;11.20;8.60;;;;;;;16.87;55.04;100758.30;112027;1250;22428;-86
2023/06/11 01:54:12;;;;;;;14.80;8.60;;;;;;;16.86;55.33;100766.46;111956;1250;21985;-84
2023/06/11 01:56:45;;;;;;;12.20;9.40;;;;;;;16.85;55.60;100770.92;111765;1250;22125;-83
2023/06/11 01:59:17;;;;;;;21.10;8.30;;;;;;;16.84;55.83;100770.98;111912;1250;21965;-84
2023/06/11 02:01:53;;;;;;;14.20;8.30;;;;;;;16.81;56.05;100777.59;111968;1250;21979;-81
2023/06/11 02:04:40;;;;;;;9.70;8.30;;;;;;;16.77;56.38;100780.11;112841;1239;21942;-83
2023/06/11 02:07:11;;;;;;;11.70;8.10;;;;;;;16.75;56.38;100781.45;113241;1238;21907;-81
2023/06/11 02:09:45;;;;;;;13.60;8.20;;;;;;;16.70;56.49;100784.02;113270;1238;22970;-82
2023/06/11 02:12:15;;;;;;;13.70;7.80;;;;;;;16.65;56.73;100784.46;113257;1238;21958;-83
2023/06/11 02:14:48;;;;;;;10.70;8.00;;;;;;;16.64;57.02;100786.15;112660;1243;23046;-80
2023/06/11 02:17:27;;;;;;;9.70;7.60;;;;;;;16.61;57.18;100788.23;112699;1239;21972;-84
2023/06/11 02:20:06;;;;;;;8.40;7.70;;;;;;;16.60;57.40;100794.10;112773;1242;22264;-81
2023/06/11 02:22:45;;;;;;;9.70;7.30;;;;;;;16.54;57.45;100786.34;112700;1242;21963;-84
2023/06/11 02:25:30;;;;;;;9.30;8.20;;;;;;;16.55;57.61;100792.96;112846;1242;21972;-82
2023/06/11 02:28:00;;;;;;;12.70;8.00;;;;;;;16.52;57.56;100795.58;112693;1242;24090;-82
2023/06/11 02:30:34;;;;;;;9.80;8.10;;;;;;;16.49;57.70;100800.65;112266;1246;22021;-82
2023/06/11 02:33:05;;;;;;;10.30;8.30;;;;;;;16.47;57.78;100799.39;111853;1247;21973;-81
2023/06/11 02:35:41;;;;;;;11.40;8.30;;;;;;;16.44;57.73;100801.98;111611;1253;21924;-81
2023/06/11 02:38:11;;;;;;;10.10;8.50;;;;;;;16.42;57.86;100803.33;111751;1249;21965;-81
2023/06/11 02:40:45;;;;;;;14.70;9.40;;;;;;;16.40;57.83;100807.30;111934;1249;21973;-81
2023/06/11 02:43:15;;;;;;;9.80;8.40;;;;;;;16.37;58.06;100810.08;111970;1249;21986;-81
2023/06/11 02:45:44;;;;;;;9.20;7.40;;;;;;;16.38;58.15;100813.36;112174;1250;21963;-82
2023/06/11 02:48:26;;;;;;;11.40;8.30;;;;;;;16.37;58.01;100812.06;112274;1245;22185;-81
2023/06/11 02:51:05;;;;;;;9.10;8.20;;;;;;;16.28;58.16;100804.11;112639;1240;22841;-82
2023/06/11 02:53:45;;;;;;;8.80;8.00;;;;;;;16.30;58.25;100812.93;112687;1239;22373;-82
2023/06/11 02:56:19;;;;;;;12.00;8.60;;;;;;;16.30;58.21;100818.41;113274;1239;21948;-82
2023/06/11 02:58:51;;;;;;;11.80;7.20;;;;;;;16.29;58.37;100817.90;113235;1239;23030;-81
2023/06/11 03:01:32;;;;;;;11.70;7.40;;;;;;;16.29;58.39;100821.61;113211;1239;21968;-83
2023/06/11 03:04:01;;;;;;;10.70;7.60;;;;;;;16.27;58.28;100824.51;112833;1239;21954;-82
2023/06/11 03:06:37;;;;;;;15.40;8.90;;;;;;;16.25;58.31;100829.20;113233;1239;21960;-80
2023/06/11 03:09:17;;;;;;;14.60;7.70;;;;;;;16.23;58.30;100827.00;112849;1239;21968;-82
2023/06/11 03:11:55;;;;;;;11.60;8.00;;;;;;;16.23;58.37;100831.59;113123;1234;21959;-82
2023/06/11 03:14:32;;;;;;;10.00;8.10;;;;;;;16.23;58.16;100831.55;113074;1240;21956;-85
2023/06/11 03:17:12;;;;;;;11.90;7.50;;;;;;;16.19;57.98;100825.63;113045;1240;21977;-84
2023/06/11 03:19:41;;;;;;;9.70;7.90;;;;;;;16.22;58.14;100832.16;112256;1245;21965;-83
2023/06/11 03:22:20;;;;;;;15.90;11.60;;;;;;;16.21;58.10;100832.91;112218;1245;21952;-82
2023/06/11 03:24:55;;;;;;;10.20;7.70;;;;;;;16.22;58.06;100832.36;112129;1245;21983;-84
2023/06/11 03:27:47;;;;;;;8.40;7.00;;;;;;;16.20;58.02;100833.50;112309;1245;21983;-83
2023/06/11 03:30:30;;;;;;;16.60;6.90;;;;;;;16.19;58.06;100830.91;112416;1245;21950;-83
2023/06/11 03:33:05;;;;;;;10.80;8.50;;;;;;;16.22;57.76;100838.30;112743;1241;21958;-83
2023/06/11 03:35:36;;;;;;;11.60;8.10;;;;;;;16.24;57.91;100837.34;112330;1245;23017;-83
2023/06/11 03:38:13;;;;;;;11.60;8.30;;;;;;;16.29;57.87;100836.36;112654;1239;22797;-82
2023/06/11 03:40:47;;;;;;;12.00;8.20;;;;;;;16.33;57.80;100839.98;112983;1239;23012;-83
2023/06/11 03:43:48;;;;;;;10.20;7.90;;;;;;;16.34;57.70;100839.23;113248;1239;21968;-83
2023/06/11 03:46:19;;;;;;;11.70;7.60;;;;;;;16.43;57.58;100842.44;112988;1239;23717;-81
2023/06/11 03:48:55;;;;;;;8.90;7.20;;;;;;;16.50;57.45;100846.12;112678;1244;23059;-83
2023/06/11 03:51:32;;;;;;;10.70;8.00;;;;;;;16.58;57.42;100847.59;112266;1245;22097;-81
2023/06/11 03:54:08;;;;;;;8.00;7.20;;;;;;;16.67;57.17;100852.70;112559;1241;23402;-83
2023/06/11 03:56:42;;;;;;;12.20;8.00;;;;;;;16.78;57.09;100847.54;112626;1241;21982;-82
2023/06/11 03:59:14;;;;;;;11.10;7.40;;;;;;;16.86;56.74;100847.48;112743;1241;23610;-81
2023/06/11 04:01:48;;;;;;;9.10;7.80;;;;;;;16.99;56.43;100855.92;112669;1241;21954;-83
2023/06/11 04:04:28;;;;;;;9.50;7.60;;;;;;;17.02;56.11;100852.36;112554;1245;22947;-82
2023/06/11 04:06:58;;;;;;;12.10;7.50;;;;;;;17.12;56.17;100853.56;112596;1239;22060;-85
2023/06/11 04:09:37;;;;;;;11.20;7.10;;;;;;;17.30;55.71;100860.83;113201;1239;21979;-85
2023/06/11 04:12:15;;;;;;;14.60;8.80;;;;;;;17.31;55.32;100858.27;113055;1239;22132;-83
2023/06/11 04:15:02;;;;;;;12.70;7.80;;;;;;;17.31;54.88;100867.79;112630;1244;23004;-83
2023/06/11 04:17:34;;;;;;;;;;;;;;;17.27;54.83;100873.29;111958;1248;23730;-83
2023/06/11 04:20:07;;;;;;;16.00;8.50;;;;;;;17.23;55.29;100875.81;111442;1253;22014;-83
2023/06/11 04:22:38;;;;;;;9.80;7.10;;;;;;;17.37;55.41;100877.67;111491;1252;21963;-83
2023/06/11 04:25:12;;;;;;;8.70;7.30;;;;;;;17.54;54.94;100879.98;111730;1252;23049;-84
2023/06/11 04:28:07;;;;;;;9.80;7.10;;;;;;;17.68;54.54;100881.30;111477;1252;21961;-84
2023/06/11 04:31:07;;;;;;;8.40;6.80;;;;;;;17.82;54.09;100883.13;110984;1260;21993;-83
2023/06/11 04:33:47;;;;;;;12.60;7.10;;;;;;;17.89;53.85;100883.61;111152;1257;21977;-84
2023/06/11 04:36:24;;;;;;;13.90;7.50;;;;;;;17.95;53.65;100881.13;111232;1257;23626;-83
2023/06/11 04:39:05;;;;;;;9.10;6.80;;;;;;;18.10;53.51;100884.49;111539;1253;21954;-83
2023/06/11 04:42:05;;;;;;;8.10;6.10;;;;;;;18.34;53.84;100893.55;111918;1247;21957;-81
2023/06/11 04:44:36;;;;;;;16.30;7.40;;;;;;;18.65;53.30;100891.27;111959;1251;22003;-84
2023/06/11 04:47:13;;;;;;;9.10;6.40;;;;;;;18.79;52.31;100888.99;111611;1251;23571;-84
2023/06/11 04:49:54;;;;;;;9.20;6.90;;;;;;;18.99;52.38;100889.15;111734;1248;21995;-84
2023/06/11 04:52:42;;;;;;;9.60;7.00;;;;;;;19.16;51.84;100890.70;111858;1248;23746;-83
2023/06/11 04:55:24;;;;;;;10.30;6.70;;;;;;;19.21;51.30;100885.99;112130;1247;23691;-84
2023/06/11 04:58:01;;;;;;;15.60;6.80;;;;;;;19.46;51.98;100889.25;112106;1248;21904;-83
2023/06/11 05:00:39;;;;;;;8.40;6.30;;;;;;;19.95;52.09;100893.55;112097;1248;22460;-85
2023/06/11 05:03:18;;;;;;;8.50;7.10;;;;;;;20.47;50.96;100894.58;113624;1234;22119;-83
2023/06/11 05:06:02;;;;;;;11.60;6.50;;;;;;;20.79;49.00;100896.02;113828;1234;21970;-84
2023/06/11 05:08:37;;;;;;;12.10;6.60;;;;;;;20.98;48.62;100898.52;113567;1234;22857;-84
2023/06/11 05:11:08;;;;;;;8.20;6.60;;;;;;;21.19;47.98;100897.89;113677;1234;21972;-84
2023/06/11 05:13:41;;;;;;;11.40;6.90;;;;;;;21.39;47.58;100900.88;112740;1241;21953;-83
2023/06/11 05:16:33;;;;;;;10.10;6.70;;;;;;;21.40;46.38;100902.75;112781;1241;21956;-83
2023/06/11 05:19:05;;;;;;;12.30;6.50;;;;;;;21.23;46.45;100902.40;112814;1241;22025;-84
2023/06/11 05:21:44;;;;;;;13.90;6.20;;;;;;;21.42;47.74;100905.61;112685;1241;23741;-82
2023/06/11 05:24:21;;;;;;;10.70;5.80;;;;;;;21.65;46.50;100906.91;112755;1241;22715;-83
2023/06/11 05:27:06;;;;;;;10.50;6.20;;;;;;;21.81;46.43;100912.42;113176;1241;21964;-85
2023/06/11 05:29:38;;;;;;;7.40;5.50;;;;;;;22.03;46.00;100912.85;112814;1241;21984;-84
2023/06/11 05:32:14;;;;;;;10.40;6.00;;;;;;;22.25;45.63;100914.05;112815;1241;23577;-84
2023/06/11 05:35:08;;;;;;;9.30;6.00;;;;;;;22.37;44.30;100915.91;112297;1246;21985;-84
2023/06/11 05:40:50;;;;;;;8.20;5.90;;;;;;;22.32;45.02;100913.15;111721;1252;21942;-84
2023/06/11 05:43:41;;;;;;;7.90;5.60;;;;;;;22.58;44.72;100913.55;111731;1252;21960;-83
2023/06/11 05:46:55;;;;;;;9.30;5.50;;;;;;;22.80;43.90;100918.77;111207;1256;22332;-84
2023/06/11 05:50:02;;;;;;;8.10;6.10;;;;;;;22.83;43.42;100920.24;111422;1256;22002;-84
2023/06/11 05:53:09;;;;;;;9.00;5.20;;;;;;;22.72;42.63;100929.69;111771;1249;22005;-84
2023/06/11 05:56:27;;;;;;;10.90;6.50;;;;;;;22.52;43.23;100933.73;111920;1249;22015;-84
2023/06/11 05:59:38;;;;;;;11.80;6.40;;;;;;;22.62;43.98;100938.27;112174;1238;23014;-84
2023/06/11 06:02:17;;;;;;;9.20;5.50;;;;;;;22.84;43.68;100937.27;112296;1247;23080;-85
2023/06/11 06:05:20;;;;;;;8.10;5.70;;;;;;;23.18;43.22;100937.20;111595;1253;21943;-85
2023/06/11 06:09:03;;;;;;;13.10;6.40;;;;;;;23.63;42.54;100943.45;111617;1254;22008;-84
2023/06/11 06:12:40;;;;;;;9.10;5.80;;;;;;;24.12;41.88;100949.92;111099;1259;22308;-85
2023/06/11 06:15:37;;;;;;;6.40;4.80;;;;;;;24.41;40.32;100950.91;111464;1256;21974;-84
2023/06/11 06:18:39;;;;;;;10.80;5.50;;;;;;;24.20;39.37;100952.81;111490;1256;23716;-86
2023/06/11 06:21:11;;;;;;;11.90;6.10;;;;;;;24.11;40.78;100952.36;111472;1256;22760;-84
2023/06/11 06:24:02;;;;;;;10.10;5.50;;;;;;;24.30;40.77;100951.59;111998;1244;22232;-84
2023/06/11 06:27:09;;;;;;;9.00;5.00;;;;;;;24.59;40.10;100949.86;112398;1235;22032;-84
2023/06/11 06:30:08;;;;;;;8.10;5.90;;;;;;;24.71;39.62;100951.66;112568;1243;22036;-84
2023/06/11 06:32:40;;;;;;;7.60;4.90;;;;;;;24.83;39.77;100957.36;112677;1243;21957;-83
2023/06/11 06:35:19;;;;;;;7.70;6.00;;;;;;;24.84;39.10;100956.35;112413;1246;23059;-85
2023/06/11 06:38:09;;;;;;;8.20;5.10;;;;;;;24.86;39.30;100953.52;112253;1246;21984;-85
2023/06/11 06:40:52;;;;;;;10.10;4.80;;;;;;;25.03;39.32;100956.29;111933;1249;23066;-83
2023/06/11 06:43:34;;;;;;;8.40;5.30;;;;;;;25.25;39.13;100953.31;111549;1251;21968;-84
2023/06/11 06:46:14;;;;;;;6.80;5.40;;;;;;;25.65;38.91;100954.49;111721;1251;21983;-84
2023/06/11 06:48:47;;;;;;;10.80;5.60;;;;;;;25.95;38.09;100953.13;111775;1251;22091;-83
2023/06/11 06:51:37;;;;;;;;;;;;;;;;;;;;;
2023/06/11 06:54:18;;;;;;;7.20;4.70;;;;;;;26.41;37.17;100959.02;111438;1256;21975;-85
2023/06/11 06:57:10;;;;;;;7.80;5.20;;;;;;;26.45;36.84;100962.33;111315;1256;21996;-85
2023/06/11 06:59:50;;;;;;;8.80;5.90;;;;;;;26.55;36.74;100961.07;111609;1251;23668;-85
2023/06/11 07:02:35;;;;;;;10.10;5.80;;;;;;;26.68;36.77;100963.59;111586;1251;22066;-86
2023/06/11 07:05:05;;;;;;;8.70;4.70;;;;;;;26.84;36.42;100960.27;111195;1256;22064;-83
2023/06/11 07:07:45;;;;;;;6.70;4.50;;;;;;;27.05;36.05;100955.86;111273;1257;23617;-85
2023/06/11 07:10:17;;;;;;;6.00;5.10;;;;;;;27.19;35.64;100961.33;111262;1257;21992;-85
2023/06/11 07:12:55;;;;;;;7.50;5.20;;;;;;;27.22;35.36;100960.07;111366;1257;21982;-86
2023/06/11 07:15:32;;;;;;;12.20;5.00;;;;;;;27.14;35.23;100964.66;111339;1257;22463;-81
2023/06/11 07:18:08;;;;;;;10.80;5.50;;;;;;;26.93;35.18;100963.63;110710;1262;22031;-83
2023/06/11 07:20:38;;;;;;;10.30;5.50;;;;;;;26.63;35.50;100961.03;110879;1259;21998;-77
2023/06/11 07:23:11;;;;;;;8.60;7.60;;;;;;;26.40;36.09;100957.64;111433;1252;21994;-77
2023/06/11 07:25:43;;;;;;;5.90;5.20;;;;;;;26.49;36.24;100953.06;110211;1242;2695827;-78
2023/06/11 07:28:13;;;;;;;8.60;4.90;;;;;;;26.58;36.19;100953.98;112675;1243;23062;-81
2023/06/11 07:30:43;;;;;;;5.90;4.90;;;;;;;26.70;35.92;100950.89;112667;1243;23111;-81
2023/06/11 07:33:24;;;;;;;20.90;5.20;;;;;;;26.85;35.50;100952.59;112814;1240;21961;-80
2023/06/11 07:35:54;;;;;;;7.30;5.00;;;;;;;27.01;35.25;100947.88;112707;1244;23101;-79
2023/06/11 07:38:23;;;;;;;9.30;4.90;;;;;;;27.18;35.22;100945.98;112303;1249;21965;-82
2023/06/11 07:40:52;;;;;;;9.50;4.40;;;;;;;27.36;34.82;100948.20;112011;1249;23468;-80
2023/06/11 07:43:23;;;;;;;10.40;5.00;;;;;;;27.54;34.84;100949.42;112312;1245;21977;-81
2023/06/11 07:45:53;;;;;;;11.10;4.70;;;;;;;27.79;34.23;100947.65;112069;1245;22127;-82
2023/06/11 07:48:32;;;;;;;7.60;4.70;;;;;;;27.83;33.59;100944.23;112425;1245;21958;-80
2023/06/11 07:51:04;;;;;;;10.10;4.30;;;;;;;27.93;33.67;100945.67;112506;1245;21924;-82
2023/06/11 07:53:40;;;;;;;9.20;4.50;;;;;;;27.98;32.92;100942.73;112874;1241;21974;-83
2023/06/11 07:56:11;;;;;;;11.30;5.90;;;;;;;27.93;33.07;100943.02;112984;1236;23023;-85
2023/06/11 07:58:50;;;;;;;13.70;5.40;;;;;;;28.04;32.55;100943.37;113238;1240;22049;-83
2023/06/11 08:01:25;;;;;;;9.50;5.70;;;;;;;27.91;32.04;100939.08;112540;1245;21971;-82
2023/06/11 08:04:42;;;;;;;;;;;;;;;;;;;;;
2023/06/11 08:07:42;;;;;;;6.30;4.00;;;;;;;27.81;31.63;100941.02;111042;1260;22334;-80
2023/06/11 08:10:41;;;;;;;7.80;4.30;;;;;;;27.81;31.52;100941.53;111130;1260;23642;-81
2023/06/11 08:13:27;;;;;;;11.00;4.10;;;;;;;27.77;31.73;100935.67;111051;1260;22817;-79
2023/06/11 08:15:57;;;;;;;6.30;4.30;;;;;;;27.93;32.26;100937.48;111030;1257;21989;-78
2023/06/11 08:18:33;;;;;;;9.00;3.60;;;;;;;28.05;30.73;100935.79;111151;1253;23028;-81
2023/06/11 08:21:30;;;;;;;10.00;4.30;;;;;;;27.63;30.66;100933.31;111495;1248;21964;-80
2023/06/11 08:24:13;;;;;;;11.40;4.00;;;;;;;27.10;30.65;100934.33;111810;1248;21954;-81
2023/06/11 08:26:45;;;;;;;5.70;4.20;;;;;;;26.44;30.56;100935.88;111647;1251;22008;-79
2023/06/11 08:29:20;;;;;;;5.30;3.90;;;;;;;26.10;31.37;100935.51;111514;1255;22725;-82
2023/06/11 08:31:52;;;;;;;4.80;3.90;;;;;;;25.98;31.63;100939.31;111339;1255;22390;-81
2023/06/11 08:34:24;;;;;;;6.20;3.40;;;;;;;26.09;31.86;100936.33;111389;1255;23252;-80
2023/06/11 08:37:13;;;;;;;9.90;3.70;;;;;;;26.25;31.30;100935.53;111596;1255;22051;-83
2023/06/11 08:40:19;;;;;;;10.70;3.40;;;;;;;26.17;30.50;100943.13;111775;1252;21978;-81
2023/06/11 08:43:38;;;;;;;8.40;3.50;;;;;;;25.57;29.72;100934.88;111783;1250;22000;-81
2023/06/11 08:46:22;;;;;;;6.90;3.30;;;;;;;25.35;29.16;100933.16;112272;1248;21958;-80
2023/06/11 08:49:39;;;;;;;10.90;3.40;;;;;;;25.33;29.62;100931.22;112923;1245;22411;-83
2023/06/11 08:52:40;;;;;;;7.90;2.80;;;;;;;25.77;29.98;100939.42;112507;1251;23716;-82
2023/06/11 08:55:41;;;;;;;4.90;3.30;;;;;;;26.20;28.42;100938.48;111526;1255;22094;-81
2023/06/11 08:59:29;;;;;;;8.80;2.90;;;;;;;26.40;27.52;100932.63;111667;1254;21954;-81
2023/06/11 09:05:48;;;;;;;7.40;4.10;;;;;;;26.51;26.84;100920.06;111068;1260;21978;-79
2023/06/11 09:08:23;;;;;;;8.50;3.70;;;;;;;26.56;27.38;100919.35;111070;1260;21967;-82
2023/06/11 09:11:15;;;;;;;5.50;3.10;;;;;;;26.73;26.55;100930.80;110942;1260;22011;-81
2023/06/11 09:14:52;;;;;;;9.10;3.20;;;;;;;26.74;26.39;100928.37;110488;1266;21970;-82
2023/06/11 09:18:13;;;;;;;10.20;2.90;;;;;;;26.82;25.45;100925.42;110473;1266;22847;-83
2023/06/11 09:20:57;;;;;;;7.40;3.40;;;;;;;26.77;25.51;100926.64;109997;1266;23727;-76
2023/06/11 09:24:17;;;;;;;8.90;3.30;;;;;;;26.77;25.83;100926.24;110178;1266;21975;-77
2023/06/11 09:30:58;;;;;;;7.80;3.00;;;;;;;26.72;25.59;100915.19;109503;1274;23073;-81
2023/06/11 09:33:48;;;;;;;11.10;3.10;;;;;;;26.90;25.93;100904.48;109772;1270;23919;-80
2023/06/11 09:37:02;;;;;;;8.10;2.90;;;;;;;27.36;25.70;100907.64;110080;1265;22009;-82
2023/06/11 09:40:45;;;;;;;;;;;;;;;;;;;;;
2023/06/11 09:43:40;;;;;;;8.60;3.20;;;;;;;27.56;25.00;100906.52;110541;1265;22008;-79
2023/06/11 09:46:55;;;;;;;7.90;3.40;;;;;;;27.57;24.74;100910.37;110199;1267;23001;-79
2023/06/11 09:49:39;;;;;;;6.20;2.80;;;;;;;27.58;24.88;100907.37;110496;1265;21982;-80
2023/06/11 09:52:26;;;;;;;4.10;3.00;;;;;;;27.60;24.75;100907.95;110498;1267;21952;-79
2023/06/11 09:55:10;;;;;;;12.70;3.00;;;;;;;27.60;24.77;100907.58;110483;1267;21990;-81
2023/06/11 09:58:03;;;;;;;;;;;;;;;;;;;;;
2023/06/11 10:01:11;;;;;;;8.30;3.00;;;;;;;27.51;25.19;100911.89;110604;1267;23635;-80
2023/06/11 10:07:37;;;;;;;4.60;3.20;;;;;;;27.09;25.18;100913.52;110737;1258;22989;-81
2023/06/11 10:10:39;;;;;;;5.50;2.80;;;;;;;27.12;25.40;100911.58;110935;1260;23792;-80
2023/06/11 10:13:45;;;;;;;11.20;3.90;;;;;;;27.14;25.34;100911.80;111114;1260;21968;-80
2023/06/11 10:17:01;;;;;;;;;;;;;;;;;;;;;
2023/06/11 10:20:42;;;;;;;6.50;2.40;;;;;;;26.76;25.53;100911.94;111016;1256;22473;-80
2023/06/11 10:23:21;;;;;;;7.60;3.70;;;;;;;26.71;25.63;100907.99;110190;1264;23054;-80
2023/06/11 10:25:58;;;;;;;5.70;2.60;;;;;;;26.73;25.44;100907.20;110926;1260;21987;-81
2023/06/11 10:28:58;;;;;;;17.30;3.40;;;;;;;26.69;25.26;100905.46;111258;1256;24322;-82
2023/06/11 10:32:56;;;;;;;9.50;3.00;;;;;;;26.63;25.27;100907.09;111657;1256;23626;-81
2023/06/11 10:35:48;;;;;;;5.20;2.20;;;;;;;26.54;24.88;100906.55;111049;1260;22067;-82
2023/06/11 10:38:30;;;;;;;6.00;3.20;;;;;;;26.48;24.41;100917.66;111127;1256;21979;-81
2023/06/11 10:41:26;;;;;;;9.40;2.70;;;;;;;26.19;24.06;100924.83;111082;1258;21817;-82
2023/06/11 10:44:41;;;;;;;4.20;2.20;;;;;;;25.88;24.13;100920.48;111383;1258;23041;-81
2023/06/11 10:47:54;;;;;;;7.50;2.50;;;;;;;25.61;24.31;100916.90;111244;1261;22171;-81
2023/06/11 10:51:05;;;;;;;9.90;2.60;;;;;;;25.50;24.60;100917.67;110959;1261;22010;-83
2023/06/11 10:54:48;;;;;;;7.00;2.60;;;;;;;25.38;25.07;100907.97;111091;1261;22743;-81
2023/06/11 10:57:44;;;;;;;8.00;2.80;;;;;;;25.18;25.16;100900.79;110688;1266;23003;-82
2023/06/11 11:01:25;;;;;;;6.60;2.40;;;;;;;25.10;25.18;100905.09;111170;1259;23725;-81
2023/06/11 11:04:58;;;;;;;;;;;;;;;24.87;25.17;100898.30;111333;1260;21989;-83
2023/06/11 11:07:50;;;;;;;17.60;3.00;;;;;;;24.66;25.51;100903.89;111112;1260;23050;-81
2023/06/11 11:10:28;;;;;;;4.70;2.20;;;;;;;24.65;25.86;100903.30;111279;1260;21987;-82
2023/06/11 11:14:17;;;;;;;5.10;2.40;;;;;;;24.71;25.67;100901.60;111104;1263;21994;-80
2023/06/11 11:17:48;;;;;;;5.60;2.40;;;;;;;24.62;25.35;100898.73;110851;1263;22000;-81
2023/06/11 11:21:02;;;;;;;8.50;2.60;;;;;;;24.54;25.13;100900.83;111021;1263;22000;-82
2023/06/11 11:23:54;;;;;;;9.70;2.60;;;;;;;24.44;24.82;100903.11;110910;1261;21981;-81
2023/06/11 11:26:44;;;;;;;6.50;2.10;;;;;;;24.40;24.79;100909.19;111276;1258;23097;-82
2023/06/11 11:30:29;;;;;;;4.20;2.20;;;;;;;24.32;24.86;100894.75;111621;1259;23671;-83
2023/06/11 11:33:42;;;;;;;;;;;;;;;24.32;24.63;100882.15;111163;1261;22319;-82
2023/06/11 11:37:05;;;;;;;7.50;2.50;;;;;;;24.29;24.73;100887.00;111458;1253;22727;-82
2023/06/11 11:40:21;;;;;;;;;;;;;;;;;;;;;
2023/06/11 11:43:22;;;;;;;3.30;3.00;;;;;;;24.28;25.24;100884.05;110509;1265;21991;-82
2023/06/11 11:47:19;;;;;;;;;;;;;;;;;;;;;
2023/06/11 11:51:08;;;;;;;4.00;2.20;;;;;;;24.19;24.74;100888.90;111032;1258;22005;-83
2023/06/11 11:53:42;;;;;;;4.70;2.10;;;;;;;24.16;24.64;100886.83;111226;1257;22042;-80
2023/06/11 11:56:52;;;;;;;3.80;2.10;;;;;;;24.18;23.82;100884.23;111436;1257;21955;-82
2023/06/11 11:59:44;;;;;;;6.60;1.90;;;;;;;24.08;23.69;100878.85;111086;1257;23058;-83
2023/06/11 12:02:18;;;;;;;;;;;;;;;24.10;23.77;100873.30;111467;1252;23591;-80
2023/06/11 12:05:00;;;;;;;7.70;2.30;;;;;;;24.06;24.18;100871.71;111673;1249;23031;-81
2023/06/11 12:08:17;;;;;;;10.60;3.00;;;;;;;24.18;24.49;100871.55;111754;1253;22073;-83
2023/06/11 12:15:49;;;;;;;6.10;1.60;;;;;;;24.27;24.62;100877.39;111784;1252;22185;-84
2023/06/11 12:18:44;;;;;;;3.60;2.20;;;;;;;24.20;24.48;100878.68;110915;1260;23846;-79
2023/06/11 12:21:19;;;;;;;6.90;2.10;;;;;;;24.18;24.80;100874.42;110492;1260;21983;-82
2023/06/11 12:24:25;;;;;;;5.50;1.80;;;;;;;24.23;24.99;100873.27;111066;1258;22431;-83
2023/06/11 12:27:08;;;;;;;6.00;2.00;;;;;;;24.29;24.82;100870.09;110919;1259;23727;-80
2023/06/11 12:31:01;;;;;;;6.40;2.50;;;;;;;24.28;24.84;100869.16;111186;1259;22000;-80
2023/06/11 12:33:58;;;;;;;5.10;3.20;;;;;;;24.33;24.56;100870.28;110560;1262;22916;-79
2023/06/11 12:36:35;;;;;;;7.40;2.90;;;;;;;24.42;24.36;100870.39;111360;1262;24379;-80
2023/06/11 12:44:08;;;;;;;3.80;1.60;;;;;;;24.44;23.59;100865.90;109486;1278;22346;-79
2023/06/11 12:46:36;;;;;;;3.90;2.00;;;;;;;24.43;23.70;100862.08;109090;1276;23181;-79
2023/06/11 12:49:28;;;;;;;;;;;;;;;;;;;;;
2023/06/11 12:53:05;;;;;;;;;;;;;;;;;;;;;
2023/06/11 12:56:00;;;;;;;3.70;2.10;;;;;;;24.35;24.10;100855.71;111600;1259;23604;-80
2023/06/11 12:59:15;;;;;;;5.10;2.20;;;;;;;24.36;24.23;100860.20;111389;1259;21997;-80
2023/06/11 13:02:03;;;;;;;9.80;2.00;;;;;;;24.40;23.81;100864.00;111413;1259;22055;-80
2023/06/11 13:04:46;;;;;;;4.90;1.80;;;;;;;24.41;23.15;100864.40;110922;1259;21991;-79
2023/06/11 13:07:27;;;;;;;3.10;1.80;;;;;;;24.49;22.96;100863.13;110950;1259;21970;-79
2023/06/11 13:10:54;;;;;;;5.50;2.00;;;;;;;24.46;22.71;100854.52;111336;1259;23085;-79
2023/06/11 13:14:00;;;;;;;5.60;2.00;;;;;;;24.48;22.42;100861.88;111107;1263;22356;-81
2023/06/11 13:16:54;;;;;;;4.50;1.80;;;;;;;24.42;22.15;100856.48;110733;1260;22567;-82
2023/06/11 13:20:13;;;;;;;5.00;1.40;;;;;;;24.38;22.11;100855.75;112045;1248;22290;-81
2023/06/11 13:23:30;;;;;;;6.60;1.90;;;;;;;24.37;22.36;100854.79;111161;1263;22007;-80
2023/06/11 13:26:50;;;;;;;7.30;2.30;;;;;;;24.40;22.38;100852.41;111041;1260;22007;-81
2023/06/11 13:29:54;;;;;;;10.80;2.10;;;;;;;24.36;22.51;100850.77;110699;1263;21995;-80
2023/06/11 13:32:43;;;;;;;4.90;2.00;;;;;;;24.44;22.77;100848.46;111168;1260;21998;-80
2023/06/11 13:35:20;;;;;;;4.70;1.60;;;;;;;24.56;22.68;100847.44;111240;1260;21992;-82